Time;durP1;ratioP1;P1;durP2;ratioP2;P2;SDS_P1;SDS_P2;PMS_P1;PMS_P2;Temp;Humidity;BMP_temperature;BMP_pressure;BME280_temperature;BME280_humidity;BME280_pressure;Samples;Min_cycle;Max_cycle;Signal;HPM_P1;HPM_P2
2024/04/11 00:01:31;;;;;;;14.10;13.70;;;;;;;;;;5430016;26;20481;-69
2024/04/11 00:03:58;;;;;;;14.07;13.67;;;;;;;;;;5430724;26;20482;-69
2024/04/11 00:06:27;;;;;;;13.87;13.47;;;;;;;;;;5429817;26;20462;-69
2024/04/11 00:08:56;;;;;;;13.97;13.57;;;;;;;;;;5430919;26;23616;-69
2024/04/11 00:11:25;;;;;;;13.50;13.10;;;;;;;;;;5429608;26;20533;-70
2024/04/11 00:13:52;;;;;;;14.13;13.73;;;;;;;;;;5431249;26;21387;-69
2024/04/11 00:16:21;;;;;;;13.60;13.20;;;;;;;;;;5429382;26;20600;-69
2024/04/11 00:18:48;;;;;;;13.70;13.30;;;;;;;;;;5432460;26;20537;-69
2024/04/11 00:21:18;;;;;;;13.80;13.40;;;;;;;;;;5429528;26;20522;-70
2024/04/11 00:23:46;;;;;;;13.37;12.97;;;;;;;;;;5433396;26;20593;-69
2024/04/11 00:26:18;;;;;;;13.57;13.17;;;;;;;;;;5429579;26;20462;-70
2024/04/11 00:28:44;;;;;;;13.93;13.53;;;;;;;;;;5429243;26;20888;-69
2024/04/11 00:31:14;;;;;;;14.10;13.70;;;;;;;;;;5431051;26;21068;-69
2024/04/11 00:33:54;;;;;;;14.20;13.80;;;;;;;;;;5432561;26;21204;-70
2024/04/11 00:36:23;;;;;;;14.30;13.90;;;;;;;;;;5430442;26;20529;-69
2024/04/11 00:38:51;;;;;;;14.17;13.77;;;;;;;;;;5426634;26;20537;-70
2024/04/11 00:41:22;;;;;;;14.33;13.93;;;;;;;;;;5429222;26;20584;-69
2024/04/11 00:43:48;;;;;;;14.37;13.97;;;;;;;;;;5430816;26;20467;-69
2024/04/11 00:46:17;;;;;;;14.27;13.87;;;;;;;;;;5432788;26;20454;-69
2024/04/11 00:48:43;;;;;;;14.00;13.60;;;;;;;;;;5429185;26;21137;-69
2024/04/11 00:51:13;;;;;;;13.80;13.40;;;;;;;;;;5431794;26;20596;-69
2024/04/11 00:53:40;;;;;;;14.20;13.80;;;;;;;;;;5431059;26;20517;-69
2024/04/11 00:56:10;;;;;;;13.60;13.20;;;;;;;;;;5429746;26;20466;-69
2024/04/11 00:58:39;;;;;;;14.57;14.07;;;;;;;;;;5453757;26;20530;-69
2024/04/11 01:01:08;;;;;;;14.40;14.00;;;;;;;;;;5475738;26;20980;-70
2024/04/11 01:03:34;;;;;;;13.77;13.37;;;;;;;;;;5465442;26;20484;-70
2024/04/11 01:06:03;;;;;;;14.27;13.87;;;;;;;;;;5471574;26;21315;-70
2024/04/11 01:08:30;;;;;;;13.50;13.10;;;;;;;;;;5467356;26;20611;-68
2024/04/11 01:10:59;;;;;;;13.40;13.00;;;;;;;;;;5476588;26;20509;-69
2024/04/11 01:13:25;;;;;;;14.53;14.13;;;;;;;;;;5469454;26;20546;-69
2024/04/11 01:15:57;;;;;;;13.77;13.37;;;;;;;;;;5473345;26;20486;-69
2024/04/11 01:18:25;;;;;;;14.70;14.20;;;;;;;;;;5470957;26;20563;-69
2024/04/11 01:20:53;;;;;;;13.73;13.33;;;;;;;;;;5463881;26;20545;-69
2024/04/11 01:23:23;;;;;;;13.73;13.33;;;;;;;;;;5480664;26;20478;-68
2024/04/11 01:25:53;;;;;;;14.30;13.90;;;;;;;;;;5462638;26;20444;-69
2024/04/11 01:28:22;;;;;;;14.27;13.87;;;;;;;;;;5469774;26;20541;-69
2024/04/11 01:30:52;;;;;;;14.47;14.03;;;;;;;;;;5470281;26;20470;-69
2024/04/11 01:33:21;;;;;;;14.30;13.90;;;;;;;;;;5473483;26;20513;-70
2024/04/11 01:35:50;;;;;;;14.20;13.80;;;;;;;;;;5471764;26;20533;-69
2024/04/11 01:38:16;;;;;;;14.07;13.67;;;;;;;;;;5469320;26;20471;-69
2024/04/11 01:40:48;;;;;;;13.97;13.57;;;;;;;;;;5459274;26;20556;-69
2024/04/11 01:43:15;;;;;;;13.73;13.33;;;;;;;;;;5472718;26;20474;-69
2024/04/11 01:45:44;;;;;;;14.03;13.63;;;;;;;;;;5464264;26;20871;-69
2024/04/11 01:48:13;;;;;;;14.07;13.67;;;;;;;;;;5483971;26;20584;-69
2024/04/11 01:50:43;;;;;;;14.13;13.73;;;;;;;;;;5459866;26;20518;-69
2024/04/11 01:53:10;;;;;;;14.07;13.67;;;;;;;;;;5467324;26;20829;-69
2024/04/11 01:55:38;;;;;;;13.90;13.50;;;;;;;;;;5463636;26;20478;-69
2024/04/11 01:58:11;;;;;;;14.80;14.30;;;;;;;;;;5471363;26;20532;-69
2024/04/11 02:00:41;;;;;;;14.20;13.80;;;;;;;;;;5464662;26;20489;-69
2024/04/11 02:03:08;;;;;;;14.03;13.63;;;;;;;;;;5465783;26;20545;-69
2024/04/11 02:05:38;;;;;;;13.87;13.47;;;;;;;;;;5482131;26;20567;-69
2024/04/11 02:08:06;;;;;;;14.33;13.93;;;;;;;;;;5470976;26;20749;-69
2024/04/11 02:10:36;;;;;;;14.33;13.93;;;;;;;;;;5483356;26;20648;-69
2024/04/11 02:13:04;;;;;;;13.87;13.47;;;;;;;;;;5464014;26;20531;-69
2024/04/11 02:15:38;;;;;;;13.67;13.27;;;;;;;;;;5466611;26;21024;-69
2024/04/11 02:18:07;;;;;;;13.40;13.00;;;;;;;;;;5478810;26;20515;-69
2024/04/11 02:20:38;;;;;;;13.80;13.40;;;;;;;;;;5459543;26;20464;-69
2024/04/11 02:23:04;;;;;;;14.07;13.67;;;;;;;;;;5466345;26;20525;-69
2024/04/11 02:25:35;;;;;;;14.70;14.20;;;;;;;;;;5468670;26;20868;-69
2024/04/11 02:28:02;;;;;;;14.23;13.83;;;;;;;;;;5459955;26;20538;-69
2024/04/11 02:30:31;;;;;;;14.37;13.97;;;;;;;;;;5456525;26;20842;-69
2024/04/11 02:33:00;;;;;;;14.20;13.80;;;;;;;;;;5460221;26;21055;-69
2024/04/11 02:35:30;;;;;;;14.60;14.10;;;;;;;;;;5467453;26;20633;-69
2024/04/11 02:37:56;;;;;;;14.57;14.07;;;;;;;;;;5465002;26;20462;-68
2024/04/11 02:40:25;;;;;;;14.00;13.60;;;;;;;;;;5462080;26;20485;-69
2024/04/11 02:42:53;;;;;;;14.13;13.73;;;;;;;;;;5469266;26;20501;-70
2024/04/11 02:45:22;;;;;;;14.57;14.07;;;;;;;;;;5455882;26;20474;-69
2024/04/11 02:47:48;;;;;;;14.03;13.63;;;;;;;;;;5463960;26;20538;-70
2024/04/11 02:50:23;;;;;;;14.10;13.70;;;;;;;;;;5469150;26;20589;-69
2024/04/11 02:52:50;;;;;;;14.10;13.70;;;;;;;;;;5459044;26;20531;-68
2024/04/11 02:55:19;;;;;;;13.73;13.33;;;;;;;;;;5464874;26;20789;-69
2024/04/11 02:57:45;;;;;;;14.17;13.77;;;;;;;;;;5461299;26;20549;-69
2024/04/11 03:00:16;;;;;;;13.87;13.47;;;;;;;;;;5460347;26;20466;-69
2024/04/11 03:02:44;;;;;;;14.07;13.67;;;;;;;;;;5464750;26;20475;-69
2024/04/11 03:05:16;;;;;;;13.70;13.30;;;;;;;;;;5481488;26;20546;-69
2024/04/11 03:07:44;;;;;;;13.70;13.30;;;;;;;;;;5464485;26;20546;-69
2024/04/11 03:10:13;;;;;;;13.80;13.40;;;;;;;;;;5461879;26;20526;-69
2024/04/11 03:12:40;;;;;;;14.43;14.03;;;;;;;;;;5471864;26;20535;-70
2024/04/11 03:15:10;;;;;;;14.03;13.63;;;;;;;;;;5456953;26;20856;-70
2024/04/11 03:17:37;;;;;;;14.13;13.73;;;;;;;;;;5470109;26;20483;-68
2024/04/11 03:20:06;;;;;;;14.17;13.77;;;;;;;;;;5467552;26;20547;-69
2024/04/11 03:22:32;;;;;;;13.87;13.47;;;;;;;;;;5450864;26;20479;-69
2024/04/11 03:25:04;;;;;;;14.23;13.83;;;;;;;;;;5472603;26;20535;-69
2024/04/11 03:27:31;;;;;;;13.80;13.40;;;;;;;;;;5454593;26;20833;-70
2024/04/11 03:30:01;;;;;;;14.10;13.70;;;;;;;;;;5461930;26;20483;-69
2024/04/11 03:32:29;;;;;;;13.27;12.87;;;;;;;;;;5474461;26;20482;-69
2024/04/11 03:34:58;;;;;;;13.83;13.43;;;;;;;;;;5476328;26;20541;-69
2024/04/11 03:37:26;;;;;;;13.20;12.80;;;;;;;;;;5476936;26;20655;-70
2024/04/11 03:39:57;;;;;;;13.90;13.50;;;;;;;;;;5466528;26;20953;-69
2024/04/11 03:42:30;;;;;;;14.00;13.60;;;;;;;;;;5477812;26;20474;-69
2024/04/11 03:45:10;;;;;;;13.83;13.43;;;;;;;;;;5475413;26;20540;-69
2024/04/11 03:47:42;;;;;;;13.73;13.33;;;;;;;;;;5475089;26;21056;-69
2024/04/11 03:50:09;;;;;;;14.40;14.00;;;;;;;;;;5471957;26;21109;-68
2024/04/11 03:52:38;;;;;;;13.67;13.27;;;;;;;;;;5473157;26;20459;-68
2024/04/11 03:55:08;;;;;;;14.27;13.87;;;;;;;;;;5477298;26;20592;-70
2024/04/11 03:57:41;;;;;;;14.20;13.80;;;;;;;;;;5471162;26;20833;-69
2024/04/11 04:00:08;;;;;;;14.20;13.80;;;;;;;;;;5478679;26;20679;-69
2024/04/11 04:02:37;;;;;;;14.33;13.93;;;;;;;;;;5454533;26;20472;-70
2024/04/11 04:05:07;;;;;;;14.67;14.17;;;;;;;;;;5476648;26;21073;-69
2024/04/11 04:07:36;;;;;;;14.80;14.30;;;;;;;;;;5462736;26;20480;-69
2024/04/11 04:10:03;;;;;;;14.90;14.40;;;;;;;;;;5484504;26;20474;-69
2024/04/11 04:12:32;;;;;;;14.83;14.33;;;;;;;;;;5475764;26;20538;-70
2024/04/11 04:15:05;;;;;;;14.60;14.10;;;;;;;;;;5472350;26;20652;-70
2024/04/11 04:17:34;;;;;;;14.87;14.37;;;;;;;;;;5479460;26;20847;-69
2024/04/11 04:20:03;;;;;;;14.60;14.10;;;;;;;;;;5460572;26;20596;-70
2024/04/11 04:22:32;;;;;;;14.00;13.60;;;;;;;;;;5471339;26;20604;-70
2024/04/11 04:24:59;;;;;;;14.53;14.07;;;;;;;;;;5482335;26;20529;-70
2024/04/11 04:27:28;;;;;;;14.97;14.47;;;;;;;;;;5459265;26;20582;-69
2024/04/11 04:29:55;;;;;;;14.77;14.27;;;;;;;;;;5467186;26;20470;-69
2024/04/11 04:32:27;;;;;;;14.20;13.80;;;;;;;;;;5470642;26;20510;-70
2024/04/11 04:34:54;;;;;;;14.90;14.40;;;;;;;;;;5468635;26;20623;-70
2024/04/11 04:37:24;;;;;;;15.03;14.53;;;;;;;;;;5465765;26;20478;-69
2024/04/11 04:39:50;;;;;;;15.03;14.53;;;;;;;;;;5467790;26;20492;-70
2024/04/11 04:42:19;;;;;;;15.03;14.53;;;;;;;;;;5471291;26;20473;-70
2024/04/11 04:44:46;;;;;;;15.07;14.57;;;;;;;;;;5475894;26;20837;-69
2024/04/11 04:47:28;;;;;;;15.30;14.80;;;;;;;;;;5471701;26;20540;-70
2024/04/11 04:49:57;;;;;;;14.90;14.40;;;;;;;;;;5461354;26;20481;-69
2024/04/11 04:52:27;;;;;;;15.20;14.70;;;;;;;;;;5461178;26;20475;-70
2024/04/11 04:54:55;;;;;;;15.50;15.00;;;;;;;;;;5476858;26;20468;-70
2024/04/11 04:57:25;;;;;;;15.80;15.20;;;;;;;;;;5461425;26;20533;-70
2024/04/11 04:59:53;;;;;;;15.33;14.83;;;;;;;;;;5464300;26;20468;-70
2024/04/11 05:02:26;;;;;;;15.00;14.50;;;;;;;;;;5471760;26;20518;-69
2024/04/11 05:04:52;;;;;;;14.97;14.47;;;;;;;;;;5469513;26;20469;-70
2024/04/11 05:07:24;;;;;;;14.90;14.40;;;;;;;;;;5473018;26;20475;-69
2024/04/11 05:09:57;;;;;;;14.50;14.00;;;;;;;;;;5467389;26;20602;-70
2024/04/11 05:12:36;;;;;;;14.90;14.40;;;;;;;;;;5474087;26;20533;-70
2024/04/11 05:15:10;;;;;;;15.17;14.67;;;;;;;;;;5455153;26;20471;-70
2024/04/11 05:17:39;;;;;;;15.10;14.60;;;;;;;;;;5459206;26;20607;-70
2024/04/11 05:20:17;;;;;;;15.27;14.77;;;;;;;;;;5463814;26;20481;-70
2024/04/11 05:22:49;;;;;;;15.17;14.67;;;;;;;;;;5462971;26;20485;-70
2024/04/11 05:25:17;;;;;;;15.20;14.70;;;;;;;;;;5470816;26;20478;-69
2024/04/11 05:27:48;;;;;;;15.23;14.73;;;;;;;;;;5459971;26;20481;-70
2024/04/11 05:30:15;;;;;;;14.60;14.10;;;;;;;;;;5462186;26;20481;-70
2024/04/11 05:32:47;;;;;;;14.40;13.90;;;;;;;;;;5469223;26;21039;-70
2024/04/11 05:35:15;;;;;;;14.63;14.13;;;;;;;;;;5461882;26;20831;-70
2024/04/11 05:37:45;;;;;;;14.53;14.03;;;;;;;;;;5477121;26;21143;-70
2024/04/11 05:40:15;;;;;;;14.50;14.00;;;;;;;;;;5476330;26;20489;-71
2024/04/11 05:42:47;;;;;;;14.40;13.90;;;;;;;;;;5479111;26;20469;-68
2024/04/11 05:45:16;;;;;;;14.97;14.47;;;;;;;;;;5461324;26;20483;-68
2024/04/11 05:47:46;;;;;;;14.83;14.33;;;;;;;;;;5467392;26;20529;-69
2024/04/11 05:50:15;;;;;;;14.90;14.40;;;;;;;;;;5468181;26;20546;-69
2024/04/11 05:52:44;;;;;;;14.70;14.20;;;;;;;;;;5477577;26;20460;-70
2024/04/11 05:55:10;;;;;;;14.17;13.77;;;;;;;;;;5466558;26;20609;-69
2024/04/11 05:57:43;;;;;;;14.83;14.33;;;;;;;;;;5477573;26;20543;-69
2024/04/11 06:00:11;;;;;;;14.73;14.23;;;;;;;;;;5470594;26;20480;-69
2024/04/11 06:02:41;;;;;;;14.73;14.23;;;;;;;;;;5465299;26;20533;-69
2024/04/11 06:05:09;;;;;;;14.50;14.00;;;;;;;;;;5463028;26;20903;-69
2024/04/11 06:07:39;;;;;;;14.77;14.27;;;;;;;;;;5461961;26;20482;-69
2024/04/11 06:10:06;;;;;;;14.23;13.83;;;;;;;;;;5482062;26;20522;-68
2024/04/11 06:12:35;;;;;;;14.80;14.30;;;;;;;;;;5472376;26;20587;-69
2024/04/11 06:15:04;;;;;;;14.80;14.30;;;;;;;;;;5463311;26;20891;-69
2024/04/11 06:17:34;;;;;;;15.10;14.60;;;;;;;;;;5464613;26;20584;-68
2024/04/11 06:20:03;;;;;;;15.17;14.67;;;;;;;;;;5455600;26;20533;-69
2024/04/11 06:22:35;;;;;;;14.73;14.23;;;;;;;;;;5450210;26;20482;-69
2024/04/11 06:25:02;;;;;;;14.70;14.20;;;;;;;;;;5468857;26;20580;-69
2024/04/11 06:27:31;;;;;;;14.67;14.17;;;;;;;;;;5470763;26;20476;-69
2024/04/11 06:30:02;;;;;;;14.83;14.33;;;;;;;;;;5471944;26;21445;-69
2024/04/11 06:32:34;;;;;;;15.07;14.57;;;;;;;;;;5461863;26;20903;-69
2024/04/11 06:35:00;;;;;;;15.30;14.80;;;;;;;;;;5474275;26;20466;-69
2024/04/11 06:37:31;;;;;;;15.63;15.10;;;;;;;;;;5469339;26;20471;-69
2024/04/11 06:39:58;;;;;;;15.47;14.97;;;;;;;;;;5456583;26;20480;-69
2024/04/11 06:42:28;;;;;;;15.80;15.20;;;;;;;;;;5475412;26;21201;-69
2024/04/11 06:44:54;;;;;;;15.10;14.60;;;;;;;;;;5458224;26;20858;-70
2024/04/11 06:47:24;;;;;;;15.77;15.27;;;;;;;;;;5464466;26;20984;-70
2024/04/11 06:49:53;;;;;;;15.07;14.57;;;;;;;;;;5449286;26;20556;-70
2024/04/11 06:52:22;;;;;;;15.43;14.93;;;;;;;;;;5459261;26;20472;-69
2024/04/11 06:54:48;;;;;;;15.13;14.63;;;;;;;;;;5460996;26;20490;-69
2024/04/11 06:57:21;;;;;;;15.20;14.70;;;;;;;;;;5458669;26;20470;-70
2024/04/11 06:59:49;;;;;;;15.20;14.70;;;;;;;;;;5454790;26;20829;-70
2024/04/11 07:02:21;;;;;;;14.90;14.40;;;;;;;;;;5460250;26;20530;-70
2024/04/11 07:04:54;;;;;;;15.00;14.50;;;;;;;;;;5463522;26;20481;-70
2024/04/11 07:07:27;;;;;;;15.33;14.83;;;;;;;;;;5465472;26;20530;-70
2024/04/11 07:09:55;;;;;;;15.67;15.17;;;;;;;;;;5460060;26;20477;-70
2024/04/11 07:12:28;;;;;;;15.43;14.93;;;;;;;;;;5462400;26;20478;-69
2024/04/11 07:14:54;;;;;;;14.90;14.40;;;;;;;;;;5460255;25;20876;-70
2024/04/11 07:17:27;;;;;;;14.30;13.90;;;;;;;;;;5461865;26;20470;-70
2024/04/11 07:19:58;;;;;;;14.63;14.13;;;;;;;;;;5459430;26;20823;-70
2024/04/11 07:22:29;;;;;;;14.80;14.30;;;;;;;;;;5465007;26;20553;-70
2024/04/11 07:24:55;;;;;;;15.00;14.50;;;;;;;;;;5464255;26;20478;-69
2024/04/11 07:27:25;;;;;;;14.70;14.20;;;;;;;;;;5465198;26;20475;-70
2024/04/11 07:29:52;;;;;;;14.60;14.10;;;;;;;;;;5461907;26;20476;-70
2024/04/11 07:32:22;;;;;;;15.20;14.70;;;;;;;;;;5463430;26;20478;-70
2024/04/11 07:34:48;;;;;;;15.07;14.57;;;;;;;;;;5459451;26;20474;-69
2024/04/11 07:37:25;;;;;;;15.70;15.20;;;;;;;;;;5459219;26;20537;-69
2024/04/11 07:39:53;;;;;;;15.13;14.63;;;;;;;;;;5464730;26;20477;-71
2024/04/11 07:42:47;;;;;;;14.87;14.37;;;;;;;;;;5459880;26;20549;-70
2024/04/11 07:45:08;;;;;;;15.27;14.77;;;;;;;;;;5465494;26;21082;-70
2024/04/11 07:47:38;;;;;;;15.20;14.70;;;;;;;;;;5461037;26;20483;-70
2024/04/11 07:50:06;;;;;;;15.20;14.70;;;;;;;;;;5460385;26;21000;-70
2024/04/11 07:52:40;;;;;;;15.53;15.03;;;;;;;;;;5463206;26;20547;-70
2024/04/11 07:55:07;;;;;;;15.37;14.87;;;;;;;;;;5466405;26;20482;-70
2024/04/11 07:57:37;;;;;;;15.23;14.73;;;;;;;;;;5460305;26;21105;-70
2024/04/11 08:00:14;;;;;;;15.00;14.50;;;;;;;;;;5455772;26;20486;-69
2024/04/11 08:02:43;;;;;;;15.00;14.50;;;;;;;;;;5462362;26;20482;-70
2024/04/11 08:05:10;;;;;;;15.63;15.13;;;;;;;;;;5464063;26;22638;-70
2024/04/11 08:07:42;;;;;;;15.30;14.80;;;;;;;;;;5457752;26;20534;-70
2024/04/11 08:10:09;;;;;;;15.60;15.10;;;;;;;;;;5462784;26;20542;-69
2024/04/11 08:12:38;;;;;;;15.50;15.00;;;;;;;;;;5459116;26;20532;-70
2024/04/11 08:15:06;;;;;;;15.30;14.80;;;;;;;;;;5463014;26;20692;-70
2024/04/11 08:17:37;;;;;;;15.40;14.90;;;;;;;;;;5462630;26;20486;-70
2024/04/11 08:20:12;;;;;;;15.20;14.70;;;;;;;;;;5460512;26;20603;-70
2024/04/11 08:22:43;;;;;;;15.57;15.07;;;;;;;;;;5457676;26;20909;-70
2024/04/11 08:25:12;;;;;;;15.23;14.73;;;;;;;;;;5465122;26;21068;-70
2024/04/11 08:27:42;;;;;;;15.43;14.93;;;;;;;;;;5464222;26;20486;-70
2024/04/11 08:30:09;;;;;;;15.43;14.93;;;;;;;;;;5458015;26;20606;-70
2024/04/11 08:32:38;;;;;;;15.67;15.17;;;;;;;;;;5456343;26;21770;-70
2024/04/11 08:35:06;;;;;;;14.80;14.30;;;;;;;;;;5457483;26;20497;-70
2024/04/11 08:37:35;;;;;;;14.93;14.43;;;;;;;;;;5463358;26;21017;-70
2024/04/11 08:40:10;;;;;;;15.20;14.70;;;;;;;;;;5462213;26;20518;-70
2024/04/11 08:42:39;;;;;;;15.00;14.50;;;;;;;;;;5460418;26;20482;-70
2024/04/11 08:45:06;;;;;;;14.50;14.10;;;;;;;;;;5460044;26;20549;-70
2024/04/11 08:47:36;;;;;;;14.97;14.47;;;;;;;;;;5455460;26;20803;-70
2024/04/11 08:50:05;;;;;;;15.00;14.50;;;;;;;;;;5446776;26;20469;-70
2024/04/11 08:52:34;;;;;;;15.10;14.60;;;;;;;;;;5455778;26;21231;-71
2024/04/11 08:55:04;;;;;;;15.00;14.50;;;;;;;;;;5463894;26;20558;-70
2024/04/11 08:57:33;;;;;;;14.90;14.40;;;;;;;;;;5458222;26;20484;-70
2024/04/11 09:00:03;;;;;;;15.27;14.77;;;;;;;;;;5451113;26;20986;-71
2024/04/11 09:02:33;;;;;;;15.40;14.90;;;;;;;;;;5463870;26;21063;-70
2024/04/11 09:04:59;;;;;;;15.70;15.20;;;;;;;;;;5460560;26;20465;-70
2024/04/11 09:07:29;;;;;;;15.40;14.90;;;;;;;;;;5463323;26;20479;-70
2024/04/11 09:09:56;;;;;;;15.10;14.60;;;;;;;;;;5459144;25;20541;-70
2024/04/11 09:12:28;;;;;;;15.30;14.80;;;;;;;;;;5462751;26;20994;-70
2024/04/11 09:14:55;;;;;;;15.30;14.80;;;;;;;;;;5461084;26;20499;-70
2024/04/11 09:17:24;;;;;;;15.33;14.83;;;;;;;;;;5455247;26;20473;-69
2024/04/11 09:20:01;;;;;;;15.30;14.80;;;;;;;;;;5458298;26;20996;-69
2024/04/11 09:22:31;;;;;;;15.27;14.77;;;;;;;;;;5462000;26;20481;-68
2024/04/11 09:24:57;;;;;;;15.20;14.70;;;;;;;;;;5461701;26;20597;-69
2024/04/11 09:27:30;;;;;;;15.40;14.90;;;;;;;;;;5464822;26;20486;-69
2024/04/11 09:29:57;;;;;;;15.10;14.60;;;;;;;;;;5461604;26;21117;-69
2024/04/11 09:32:28;;;;;;;14.90;14.40;;;;;;;;;;5460057;26;20486;-68
2024/04/11 09:34:57;;;;;;;14.60;14.10;;;;;;;;;;5460835;26;20555;-69
2024/04/11 09:37:28;;;;;;;15.10;14.60;;;;;;;;;;5463328;26;20570;-68
2024/04/11 09:39:56;;;;;;;14.87;14.37;;;;;;;;;;5461818;26;20656;-69
2024/04/11 09:42:26;;;;;;;14.83;14.33;;;;;;;;;;5458025;26;20530;-68
2024/04/11 09:44:55;;;;;;;15.00;14.50;;;;;;;;;;5457037;26;20533;-68
2024/04/11 09:47:28;;;;;;;14.67;14.17;;;;;;;;;;5454746;26;20475;-68
2024/04/11 09:49:59;;;;;;;14.90;14.40;;;;;;;;;;5464768;26;20480;-68
2024/04/11 09:52:34;;;;;;;15.00;14.50;;;;;;;;;;5460447;26;20622;-69
2024/04/11 09:55:04;;;;;;;14.93;14.43;;;;;;;;;;5453214;26;20586;-69
2024/04/11 09:57:34;;;;;;;14.87;14.37;;;;;;;;;;5462024;26;20486;-69
2024/04/11 10:00:07;;;;;;;14.43;14.03;;;;;;;;;;5461813;26;20483;-68
2024/04/11 10:02:38;;;;;;;14.33;13.93;;;;;;;;;;5454514;26;20525;-69
2024/04/11 10:05:06;;;;;;;14.77;14.27;;;;;;;;;;5458616;26;21032;-69
2024/04/11 10:07:41;;;;;;;14.67;14.17;;;;;;;;;;5459044;26;21005;-69
2024/04/11 10:10:07;;;;;;;14.47;14.03;;;;;;;;;;5460541;26;20610;-69
2024/04/11 10:12:43;;;;;;;14.30;13.90;;;;;;;;;;5461270;26;20944;-69
2024/04/11 10:15:18;;;;;;;14.60;14.10;;;;;;;;;;5465602;26;21131;-69
2024/04/11 10:17:49;;;;;;;14.80;14.30;;;;;;;;;;5458373;26;20529;-69
2024/04/11 10:20:19;;;;;;;14.27;13.87;;;;;;;;;;5457680;26;20473;-69
2024/04/11 10:22:52;;;;;;;14.17;13.77;;;;;;;;;;5463908;26;20481;-69
2024/04/11 10:25:18;;;;;;;14.23;13.83;;;;;;;;;;5459873;26;20753;-69
2024/04/11 10:27:47;;;;;;;14.97;14.47;;;;;;;;;;5456843;26;20844;-69
2024/04/11 10:30:23;;;;;;;14.07;13.67;;;;;;;;;;5459397;26;21004;-69
2024/04/11 10:32:52;;;;;;;14.97;14.47;;;;;;;;;;5456721;26;20471;-69
2024/04/11 10:35:23;;;;;;;14.70;14.20;;;;;;;;;;5457979;26;20569;-69
2024/04/11 10:37:55;;;;;;;14.60;14.10;;;;;;;;;;5455504;26;20588;-70
2024/04/11 10:40:24;;;;;;;15.10;14.60;;;;;;;;;;5460006;26;20488;-70
2024/04/11 10:45:38;;;;;;;14.40;14.00;;;;;;;;;;5458515;26;20484;-71
2024/04/11 10:48:09;;;;;;;15.00;14.60;;;;;;;;;;5455849;26;20860;-70
2024/04/11 10:50:42;;;;;;;15.23;14.73;;;;;;;;;;5457591;26;20479;-70
2024/04/11 10:53:09;;;;;;;14.93;14.53;;;;;;;;;;5459790;26;20493;-70
2024/04/11 10:55:43;;;;;;;15.10;14.70;;;;;;;;;;5456641;25;20479;-71
2024/04/11 10:58:13;;;;;;;15.30;14.80;;;;;;;;;;5460930;26;20560;-69
2024/04/11 11:03:46;;;;;;;15.40;14.90;;;;;;;;;;5464515;26;20530;-70
2024/04/11 11:06:13;;;;;;;15.07;14.57;;;;;;;;;;5462037;26;20481;-70
2024/04/11 11:08:43;;;;;;;15.20;14.70;;;;;;;;;;5457289;26;20483;-70
2024/04/11 11:11:11;;;;;;;15.30;14.80;;;;;;;;;;5456474;26;20606;-70
2024/04/11 11:13:42;;;;;;;15.90;15.40;;;;;;;;;;5464222;26;20479;-70
2024/04/11 11:16:12;;;;;;;16.20;15.70;;;;;;;;;;5464023;26;21021;-70
2024/04/11 11:18:43;;;;;;;14.70;14.30;;;;;;;;;;5456669;26;20888;-69
2024/04/11 11:21:16;;;;;;;15.40;14.90;;;;;;;;;;5458249;26;21087;-70
2024/04/11 11:23:45;;;;;;;15.70;15.20;;;;;;;;;;5452298;26;20519;-69
2024/04/11 11:26:12;;;;;;;15.60;15.10;;;;;;;;;;5459126;26;20592;-70
2024/04/11 11:28:42;;;;;;;14.90;14.50;;;;;;;;;;5456491;26;20542;-69
2024/04/11 11:31:20;;;;;;;14.70;14.30;;;;;;;;;;5458090;26;21008;-70
2024/04/11 11:33:50;;;;;;;14.70;14.30;;;;;;;;;;5459383;26;20478;-70
2024/04/11 11:36:17;;;;;;;14.90;14.40;;;;;;;;;;5463761;26;20538;-70
2024/04/11 11:38:48;;;;;;;14.97;14.47;;;;;;;;;;5461069;26;21075;-69
2024/04/11 11:41:15;;;;;;;15.10;14.60;;;;;;;;;;5458283;25;20600;-70
2024/04/11 11:43:54;;;;;;;15.00;14.50;;;;;;;;;;5461905;26;20539;-70
2024/04/11 11:46:31;;;;;;;14.80;14.40;;;;;;;;;;5461243;26;21022;-69
2024/04/11 11:49:12;;;;;;;15.33;14.83;;;;;;;;;;5459282;26;20483;-69
2024/04/11 11:51:38;;;;;;;15.40;14.90;;;;;;;;;;5460994;26;20539;-69
2024/04/11 11:54:12;;;;;;;15.53;15.03;;;;;;;;;;5455384;26;20601;-70
2024/04/11 11:56:39;;;;;;;15.33;14.83;;;;;;;;;;5459608;26;20479;-69
2024/04/11 11:59:08;;;;;;;14.90;14.40;;;;;;;;;;5460797;26;20482;-70
2024/04/11 12:01:41;;;;;;;15.30;14.80;;;;;;;;;;5458978;26;20844;-70
2024/04/11 12:04:10;;;;;;;13.93;13.53;;;;;;;;;;5460582;26;20559;-69
2024/04/11 12:06:37;;;;;;;15.17;14.67;;;;;;;;;;5456109;26;20499;-70
2024/04/11 12:09:10;;;;;;;14.57;14.17;;;;;;;;;;5463593;26;20474;-69
2024/04/11 12:11:49;;;;;;;14.80;14.30;;;;;;;;;;5456009;26;20530;-70
2024/04/11 12:14:22;;;;;;;14.00;13.60;;;;;;;;;;5466998;26;20826;-69
2024/04/11 12:16:52;;;;;;;14.53;14.13;;;;;;;;;;5465711;26;20485;-69
2024/04/11 12:19:28;;;;;;;14.10;13.70;;;;;;;;;;5460592;26;20474;-70
2024/04/11 12:21:56;;;;;;;14.33;13.93;;;;;;;;;;5458821;26;21079;-70
2024/04/11 12:24:25;;;;;;;14.30;13.90;;;;;;;;;;5465762;26;20469;-70
2024/04/11 12:26:52;;;;;;;14.93;14.43;;;;;;;;;;5461754;26;20493;-69
2024/04/11 12:29:21;;;;;;;14.30;13.90;;;;;;;;;;5461519;26;20827;-69
2024/04/11 12:31:50;;;;;;;14.33;13.93;;;;;;;;;;5460921;26;20495;-70
2024/04/11 12:34:22;;;;;;;15.50;15.00;;;;;;;;;;5457221;26;21029;-70
2024/04/11 12:36:56;;;;;;;14.93;14.43;;;;;;;;;;5463930;26;20545;-70
2024/04/11 12:39:32;;;;;;;15.20;14.70;;;;;;;;;;5460928;26;20489;-70
2024/04/11 12:42:00;;;;;;;14.80;14.30;;;;;;;;;;5463488;26;20535;-70
2024/04/11 12:44:36;;;;;;;15.30;14.80;;;;;;;;;;5462517;26;20471;-70
2024/04/11 12:47:13;;;;;;;15.50;15.00;;;;;;;;;;5459117;26;20897;-70
2024/04/11 12:49:48;;;;;;;15.30;14.80;;;;;;;;;;5462467;26;20880;-70
2024/04/11 12:52:15;;;;;;;15.00;14.50;;;;;;;;;;5455432;26;21623;-70
2024/04/11 12:54:47;;;;;;;15.20;14.70;;;;;;;;;;5466057;26;20536;-70
2024/04/11 12:57:17;;;;;;;16.03;15.47;;;;;;;;;;5456788;26;21134;-70
2024/04/11 12:59:48;;;;;;;15.50;15.00;;;;;;;;;;5460186;26;20472;-70
2024/04/11 13:02:19;;;;;;;15.43;14.93;;;;;;;;;;5461295;26;20484;-70
2024/04/11 13:04:54;;;;;;;15.60;15.10;;;;;;;;;;5456247;26;20529;-70
2024/04/11 13:07:22;;;;;;;15.57;15.07;;;;;;;;;;5466659;26;20475;-70
2024/04/11 13:10:07;;;;;;;15.50;15.00;;;;;;;;;;5460879;26;20489;-70
2024/04/11 13:12:34;;;;;;;15.50;15.00;;;;;;;;;;5463530;26;20532;-71
2024/04/11 13:15:08;;;;;;;15.70;15.20;;;;;;;;;;5465889;26;20961;-70
2024/04/11 13:17:34;;;;;;;15.30;14.80;;;;;;;;;;5463092;26;20470;-70
2024/04/11 13:20:15;;;;;;;15.40;14.90;;;;;;;;;;5457143;26;20485;-70
2024/04/11 13:22:42;;;;;;;15.13;14.63;;;;;;;;;;5460652;26;20482;-70
2024/04/11 13:25:17;;;;;;;14.90;14.40;;;;;;;;;;5460510;26;20532;-70
2024/04/11 13:27:44;;;;;;;15.17;14.67;;;;;;;;;;5463170;26;20948;-70
2024/04/11 13:30:17;;;;;;;14.93;14.43;;;;;;;;;;5462750;26;21140;-71
2024/04/11 13:32:48;;;;;;;14.90;14.40;;;;;;;;;;5462591;26;20494;-70
2024/04/11 13:35:36;;;;;;;15.43;14.93;;;;;;;;;;5462532;26;20480;-70
2024/04/11 13:38:12;;;;;;;15.10;14.60;;;;;;;;;;5457683;26;21069;-70
2024/04/11 13:43:29;;;;;;;15.33;14.83;;;;;;;;;;5465395;26;20524;-70
2024/04/11 13:46:06;;;;;;;15.30;14.80;;;;;;;;;;5456045;26;20545;-70
2024/04/11 13:48:36;;;;;;;15.13;14.63;;;;;;;;;;5457211;26;20522;-70
2024/04/11 13:51:15;;;;;;;15.50;15.00;;;;;;;;;;5458874;26;20473;-70
2024/04/11 13:53:44;;;;;;;14.60;14.20;;;;;;;;;;5461272;26;20883;-71
2024/04/11 13:56:13;;;;;;;14.70;14.30;;;;;;;;;;5457545;26;20557;-71
2024/04/11 13:58:58;;;;;;;14.60;14.20;;;;;;;;;;5463041;26;20485;-70
2024/04/11 14:01:27;;;;;;;15.17;14.67;;;;;;;;;;5463447;26;20529;-70
2024/04/11 14:03:57;;;;;;;15.20;14.70;;;;;;;;;;5452888;26;20526;-70
2024/04/11 14:06:39;;;;;;;15.00;14.50;;;;;;;;;;5458451;26;20563;-70
2024/04/11 14:09:10;;;;;;;15.37;14.87;;;;;;;;;;5455324;26;20542;-70
2024/04/11 14:11:37;;;;;;;15.63;15.13;;;;;;;;;;5461929;26;20591;-70
2024/04/11 14:14:11;;;;;;;15.10;14.60;;;;;;;;;;5460251;26;20478;-70
2024/04/11 14:16:51;;;;;;;14.83;14.33;;;;;;;;;;5456198;26;21105;-70
2024/04/11 14:19:35;;;;;;;15.17;14.67;;;;;;;;;;5459705;26;21212;-70
2024/04/11 14:25:22;;;;;;;15.00;14.50;;;;;;;;;;5456392;26;21000;-70
2024/04/11 14:27:47;;;;;;;14.90;14.40;;;;;;;;;;5460625;26;20492;-69
2024/04/11 14:30:24;;;;;;;14.83;14.33;;;;;;;;;;5457714;26;20592;-69
2024/04/11 14:33:09;;;;;;;14.97;14.47;;;;;;;;;;5455983;26;20486;-69
2024/04/11 14:38:32;;;;;;;14.50;14.10;;;;;;;;;;5459979;26;21330;-69
2024/04/11 14:41:04;;;;;;;14.83;14.33;;;;;;;;;;5458212;26;20477;-69
2024/04/11 14:43:33;;;;;;;15.00;14.50;;;;;;;;;;5463926;26;20537;-69
2024/04/11 14:45:59;;;;;;;15.03;14.53;;;;;;;;;;5461983;26;20544;-69
2024/04/11 14:48:33;;;;;;;14.80;14.30;;;;;;;;;;5452890;26;20529;-69